Time;durP1;ratioP1;P1;durP2;ratioP2;P2;SDS_P1;SDS_P2;PMS_P1;PMS_P2;Temp;Humidity;BMP_temperature;BMP_pressure;BME280_temperature;BME280_humidity;BME280_pressure;Samples;Min_cycle;Max_cycle;Signal;HPM_P1;HPM_P2
2021/11/10 00:01:29;;;;;;;31.48;18.65;;;;;;;;;;5076922;28;20040;-76
2021/11/10 00:03:55;;;;;;;25.27;16.55;;;;;;;;;;5076344;28;20042;-77
2021/11/10 00:06:21;;;;;;;26.55;15.60;;;;;;;;;;5076368;28;20033;-77
2021/11/10 00:08:53;;;;;;;31.50;19.48;;;;;;;;;;5076228;28;20043;-77
2021/11/10 00:11:22;;;;;;;36.20;20.60;;;;;;;;;;5058432;28;20037;-77
2021/11/10 00:13:48;;;;;;;31.33;18.48;;;;;;;;;;5076219;28;20154;-78
2021/11/10 00:16:20;;;;;;;32.97;16.85;;;;;;;;;;5058159;28;20119;-78
2021/11/10 00:18:51;;;;;;;32.47;17.98;;;;;;;;;;5058607;28;20170;-77
2021/11/10 00:24:26;;;;;;;33.35;19.75;;;;;;;;;;5075832;28;20404;-79
2021/11/10 00:26:52;;;;;;;39.30;20.80;;;;;;;;;;5076027;28;20060;-79
2021/11/10 00:29:34;;;;;;;40.97;21.90;;;;;;;;;;5057769;28;20396;-76
2021/11/10 00:32:13;;;;;;;54.50;27.02;;;;;;;;;;5058432;28;20059;-75
2021/11/10 00:34:39;;;;;;;37.83;20.65;;;;;;;;;;5076081;28;20435;-75
2021/11/10 00:37:07;;;;;;;31.90;20.23;;;;;;;;;;5075681;28;20100;-75
2021/11/10 00:39:35;;;;;;;58.10;35.35;;;;;;;;;;5058125;28;20040;-75
2021/11/10 00:42:12;;;;;;;36.30;23.45;;;;;;;;;;5075701;28;20033;-75
2021/11/10 00:44:53;;;;;;;29.05;20.13;;;;;;;;;;5075841;28;20040;-79
2021/11/10 00:47:19;;;;;;;;;;;;;;;;;;5058393;28;20036;-78
2021/11/10 00:49:44;;;;;;;21.38;14.98;;;;;;;;;;5075536;28;19915;-78
2021/11/10 00:52:16;;;;;;;20.92;14.63;;;;;;;;;;5057634;28;20376;-78
2021/11/10 00:54:50;;;;;;;19.08;13.35;;;;;;;;;;5057722;28;20040;-78
2021/11/10 00:57:17;;;;;;;18.30;13.00;;;;;;;;;;5040161;28;20457;-75
2021/11/10 00:59:43;;;;;;;17.30;12.52;;;;;;;;;;5057792;28;20044;-75
2021/11/10 01:02:09;;;;;;;14.25;11.65;;;;;;;;;;5057597;28;20037;-75
2021/11/10 01:04:36;;;;;;;14.88;11.70;;;;;;;;;;5075320;28;20024;-75
2021/11/10 01:07:03;;;;;;;15.57;11.30;;;;;;;;;;5075599;28;20449;-75
2021/11/10 01:09:31;;;;;;;16.42;11.82;;;;;;;;;;5075134;28;20119;-74
2021/11/10 01:11:56;;;;;;;17.48;11.13;;;;;;;;;;5075524;28;20041;-75
2021/11/10 01:14:22;;;;;;;14.10;10.55;;;;;;;;;;5057641;28;20029;-75
2021/11/10 01:16:48;;;;;;;16.10;11.27;;;;;;;;;;5041089;28;20473;-76
2021/11/10 01:19:19;;;;;;;14.85;11.02;;;;;;;;;;5057309;28;20043;-75
2021/11/10 01:21:48;;;;;;;35.95;16.08;;;;;;;;;;5057459;28;20089;-76
2021/11/10 01:24:14;;;;;;;70.97;31.33;;;;;;;;;;5074451;28;20049;-76
2021/11/10 01:26:40;;;;;;;101.75;49.97;;;;;;;;;;5057109;28;20431;-76
2021/11/10 01:29:06;;;;;;;111.32;51.50;;;;;;;;;;5075139;28;20036;-75
2021/11/10 01:31:34;;;;;;;105.35;48.92;;;;;;;;;;5057035;28;20041;-75
2021/11/10 01:34:03;;;;;;;68.93;32.50;;;;;;;;;;5057282;28;20024;-75
2021/11/10 01:36:30;;;;;;;28.90;17.97;;;;;;;;;;5057228;28;20028;-76
2021/11/10 01:38:59;;;;;;;23.65;16.33;;;;;;;;;;5056897;28;20342;-77
2021/11/10 01:41:25;;;;;;;19.98;14.18;;;;;;;;;;5075252;28;20040;-76
2021/11/10 01:43:50;;;;;;;19.38;13.80;;;;;;;;;;5056929;28;20055;-77
2021/11/10 01:46:16;;;;;;;15.85;12.55;;;;;;;;;;5056627;28;20166;-77
2021/11/10 01:48:45;;;;;;;16.55;12.05;;;;;;;;;;5056273;28;20028;-76
2021/11/10 01:51:10;;;;;;;15.05;11.05;;;;;;;;;;5056535;28;20518;-77
2021/11/10 01:53:36;;;;;;;18.15;11.95;;;;;;;;;;5074250;28;20020;-76
2021/11/10 01:56:06;;;;;;;14.52;11.35;;;;;;;;;;5056309;28;20048;-77
2021/11/10 01:58:33;;;;;;;16.30;11.38;;;;;;;;;;5039752;28;20067;-77
2021/11/10 02:00:59;;;;;;;13.38;10.77;;;;;;;;;;5056542;28;20036;-76
2021/11/10 02:03:26;;;;;;;17.42;12.15;;;;;;;;;;5056328;28;20020;-75
2021/11/10 02:05:57;;;;;;;20.05;11.32;;;;;;;;;;5074151;28;20047;-74
2021/11/10 02:08:41;;;;;;;17.80;11.20;;;;;;;;;;5074249;28;20049;-75
2021/11/10 02:11:15;;;;;;;18.85;12.35;;;;;;;;;;5056324;28;20036;-76
2021/11/10 02:13:49;;;;;;;15.45;11.02;;;;;;;;;;5056500;28;20503;-76
2021/11/10 02:16:18;;;;;;;19.48;12.38;;;;;;;;;;5056116;28;20419;-75
2021/11/10 02:18:43;;;;;;;31.33;17.75;;;;;;;;;;5039230;28;20020;-75
2021/11/10 02:21:14;;;;;;;41.37;23.27;;;;;;;;;;5055967;28;20060;-75
2021/11/10 02:23:40;;;;;;;48.55;26.70;;;;;;;;;;5055190;28;20381;-75
2021/11/10 02:26:11;;;;;;;56.13;31.17;;;;;;;;;;5055678;28;20032;-75
2021/11/10 02:28:38;;;;;;;96.80;39.85;;;;;;;;;;5055811;28;20045;-75
2021/11/10 02:31:03;;;;;;;94.03;39.70;;;;;;;;;;5056146;28;20091;-75
2021/11/10 02:33:53;;;;;;;66.43;28.73;;;;;;;;;;5073772;28;20033;-78
2021/11/10 02:36:27;;;;;;;60.67;24.25;;;;;;;;;;5055626;28;20039;-78
2021/11/10 02:39:06;;;;;;;47.40;21.27;;;;;;;;;;5055415;28;20040;-78
2021/11/10 02:41:34;;;;;;;35.17;17.87;;;;;;;;;;5055706;28;20052;-77
2021/11/10 02:44:10;;;;;;;40.78;18.98;;;;;;;;;;5074025;28;20035;-78
2021/11/10 02:46:45;;;;;;;25.15;14.98;;;;;;;;;;5073280;28;20041;-78
2021/11/10 02:52:41;;;;;;;18.13;12.68;;;;;;;;;;5073389;28;20067;-80
2021/11/10 02:55:37;;;;;;;18.45;12.50;;;;;;;;;;5073301;28;20040;-77
2021/11/10 02:58:14;;;;;;;20.60;14.13;;;;;;;;;;5055231;28;20071;-75
2021/11/10 03:00:48;;;;;;;22.00;13.63;;;;;;;;;;5055845;28;20037;-76
2021/11/10 03:03:14;;;;;;;24.30;15.77;;;;;;;;;;5055610;28;20123;-77
2021/11/10 03:05:49;;;;;;;20.92;14.02;;;;;;;;;;5055829;28;20036;-76
2021/11/10 03:08:18;;;;;;;;;;;;;;;;;;5039982;28;20032;-76
2021/11/10 03:10:44;;;;;;;18.70;11.82;;;;;;;;;;5038615;28;19919;-75
2021/11/10 03:13:10;;;;;;;17.45;12.85;;;;;;;;;;5055384;28;20032;-75
2021/11/10 03:15:37;;;;;;;20.05;13.25;;;;;;;;;;5038697;28;20472;-73
2021/11/10 03:18:04;;;;;;;19.67;14.32;;;;;;;;;;5055373;28;20094;-74
2021/11/10 03:20:30;;;;;;;23.35;15.65;;;;;;;;;;5058773;28;20024;-75
2021/11/10 03:22:55;;;;;;;21.02;15.00;;;;;;;;;;5077437;28;20032;-75
2021/11/10 03:25:23;;;;;;;18.98;14.50;;;;;;;;;;5059423;28;20036;-76
2021/11/10 03:27:51;;;;;;;18.75;13.88;;;;;;;;;;5059772;28;20413;-75
2021/11/10 03:30:18;;;;;;;23.65;19.05;;;;;;;;;;5059317;28;20024;-76
2021/11/10 03:32:52;;;;;;;23.63;14.93;;;;;;;;;;5059015;28;20534;-77
2021/11/10 03:35:19;;;;;;;25.80;15.20;;;;;;;;;;5059440;28;20040;-77
2021/11/10 03:37:44;;;;;;;24.08;13.93;;;;;;;;;;5059163;28;20032;-77
2021/11/10 03:40:10;;;;;;;22.10;14.20;;;;;;;;;;5059366;28;20039;-77
2021/11/10 03:42:40;;;;;;;19.67;13.40;;;;;;;;;;5059504;28;20426;-77
2021/11/10 03:45:10;;;;;;;21.52;14.20;;;;;;;;;;5059086;28;20518;-76
2021/11/10 03:47:36;;;;;;;20.70;13.05;;;;;;;;;;5042634;28;20535;-76
2021/11/10 03:50:02;;;;;;;19.27;13.23;;;;;;;;;;5059017;28;20119;-76
2021/11/10 03:52:30;;;;;;;20.83;12.93;;;;;;;;;;5058637;28;20108;-75
2021/11/10 03:54:59;;;;;;;23.35;14.73;;;;;;;;;;5059382;28;20124;-75
2021/11/10 03:57:24;;;;;;;21.83;14.55;;;;;;;;;;5059113;28;20460;-74
2021/11/10 03:59:50;;;;;;;19.95;13.07;;;;;;;;;;5058981;28;20063;-74
2021/11/10 04:02:19;;;;;;;18.88;12.43;;;;;;;;;;5058409;28;20024;-77
2021/11/10 04:04:46;;;;;;;17.52;13.07;;;;;;;;;;5076310;28;20037;-76
2021/11/10 04:07:23;;;;;;;19.85;13.52;;;;;;;;;;5076807;28;20039;-76
2021/11/10 04:09:53;;;;;;;20.50;13.18;;;;;;;;;;5041814;28;20040;-74
2021/11/10 04:12:21;;;;;;;18.95;13.35;;;;;;;;;;5058706;28;20040;-74
2021/11/10 04:14:52;;;;;;;19.95;13.15;;;;;;;;;;5058459;28;20036;-74
2021/11/10 04:17:20;;;;;;;;;;;;;;;;;;5059002;28;20063;-74
2021/11/10 04:19:47;;;;;;;16.92;11.85;;;;;;;;;;5058540;28;20309;-76
2021/11/10 04:22:25;;;;;;;19.17;12.65;;;;;;;;;;5058025;28;20044;-75
2021/11/10 04:24:52;;;;;;;19.40;11.82;;;;;;;;;;5058480;28;20048;-75
2021/11/10 04:27:19;;;;;;;18.98;13.10;;;;;;;;;;5058115;28;20127;-75
2021/11/10 04:29:49;;;;;;;20.38;13.35;;;;;;;;;;5041890;28;20534;-75
2021/11/10 04:32:19;;;;;;;19.00;12.80;;;;;;;;;;5057206;28;20416;-77
2021/11/10 04:34:49;;;;;;;21.17;14.23;;;;;;;;;;5057831;28;20033;-75
2021/11/10 04:37:15;;;;;;;22.00;15.00;;;;;;;;;;5057779;28;20044;-75
2021/11/10 04:39:42;;;;;;;20.30;13.70;;;;;;;;;;5058192;28;20086;-75
2021/11/10 04:45:28;;;;;;;20.42;13.75;;;;;;;;;;5057742;28;20143;-74
2021/11/10 04:47:53;;;;;;;18.65;13.65;;;;;;;;;;5075895;28;20098;-74
2021/11/10 04:50:19;;;;;;;20.05;13.55;;;;;;;;;;5075964;28;20445;-75
2021/11/10 04:52:46;;;;;;;20.63;12.80;;;;;;;;;;5057650;28;20476;-75
2021/11/10 04:55:42;;;;;;;18.05;12.77;;;;;;;;;;5057732;28;20033;-78
2021/11/10 04:58:15;;;;;;;15.90;11.52;;;;;;;;;;5057635;28;20036;-78
2021/11/10 05:00:50;;;;;;;17.98;11.80;;;;;;;;;;5057887;28;20040;-79
2021/11/10 05:03:27;;;;;;;18.15;13.13;;;;;;;;;;5057379;28;20036;-81
2021/11/10 05:05:53;;;;;;;17.30;11.20;;;;;;;;;;5057327;28;20036;-77
2021/11/10 05:08:20;;;;;;;19.33;13.50;;;;;;;;;;5057294;28;20020;-75
2021/11/10 05:10:46;;;;;;;20.70;12.68;;;;;;;;;;5057602;28;20032;-76
2021/11/10 05:13:12;;;;;;;17.33;11.95;;;;;;;;;;5057220;28;20107;-76
2021/11/10 05:15:38;;;;;;;21.27;13.82;;;;;;;;;;5056649;28;20048;-76
2021/11/10 05:18:12;;;;;;;25.02;16.10;;;;;;;;;;5056637;28;20127;-77
2021/11/10 05:20:44;;;;;;;24.50;15.70;;;;;;;;;;5057482;28;20037;-77
2021/11/10 05:23:10;;;;;;;26.45;15.77;;;;;;;;;;5056663;28;20439;-77
2021/11/10 05:25:35;;;;;;;28.02;16.85;;;;;;;;;;5075527;28;20037;-77
2021/11/10 05:28:10;;;;;;;26.77;16.95;;;;;;;;;;5075184;28;20032;-77
2021/11/10 05:30:37;;;;;;;25.75;16.20;;;;;;;;;;5074613;28;20040;-76
2021/11/10 05:33:23;;;;;;;23.73;14.48;;;;;;;;;;5074937;28;20458;-76
2021/11/10 05:36:03;;;;;;;22.15;15.55;;;;;;;;;;5075048;28;20036;-76
2021/11/10 05:38:28;;;;;;;27.92;17.70;;;;;;;;;;5074668;28;20040;-75
2021/11/10 05:40:56;;;;;;;38.58;23.58;;;;;;;;;;5056842;28;20020;-75
2021/11/10 05:43:34;;;;;;;56.25;32.60;;;;;;;;;;5074259;28;20036;-75
2021/11/10 05:45:59;;;;;;;55.80;33.88;;;;;;;;;;5074683;28;20036;-74
2021/11/10 05:48:34;;;;;;;56.70;32.25;;;;;;;;;;5074257;28;20036;-75
2021/11/10 05:51:18;;;;;;;43.88;24.90;;;;;;;;;;5074293;28;20071;-74
2021/11/10 05:53:51;;;;;;;42.70;22.13;;;;;;;;;;5074842;28;20518;-75
2021/11/10 05:56:22;;;;;;;38.50;20.17;;;;;;;;;;5074605;28;20036;-74
2021/11/10 06:02:01;;;;;;;36.00;23.77;;;;;;;;;;5074223;28;20407;-75
2021/11/10 06:04:38;;;;;;;26.95;17.13;;;;;;;;;;5074114;28;20033;-75
2021/11/10 06:07:04;;;;;;;16.83;12.52;;;;;;;;;;5056273;28;20500;-76
2021/11/10 06:09:30;;;;;;;17.60;12.02;;;;;;;;;;5073703;28;20472;-76
2021/11/10 06:11:55;;;;;;;18.02;11.68;;;;;;;;;;5055770;28;20123;-76
2021/11/10 06:14:20;;;;;;;20.13;12.43;;;;;;;;;;5055854;28;20079;-75
2021/11/10 06:16:46;;;;;;;17.08;12.18;;;;;;;;;;5073643;28;20058;-74
2021/11/10 06:19:12;;;;;;;22.38;13.80;;;;;;;;;;5073585;28;20032;-74
2021/11/10 06:21:37;;;;;;;21.23;13.40;;;;;;;;;;5073575;28;20033;-75
2021/11/10 06:24:03;;;;;;;17.15;12.27;;;;;;;;;;5073045;28;20048;-75
2021/11/10 06:26:28;;;;;;;16.48;11.88;;;;;;;;;;5055599;28;20127;-76
2021/11/10 06:28:54;;;;;;;16.90;12.15;;;;;;;;;;5073408;28;20037;-76
2021/11/10 06:31:19;;;;;;;19.02;13.15;;;;;;;;;;5055396;28;20378;-75
2021/11/10 06:33:45;;;;;;;19.80;13.52;;;;;;;;;;5073371;28;20036;-75
2021/11/10 06:36:10;;;;;;;19.23;12.60;;;;;;;;;;5073294;28;20043;-75
2021/11/10 06:38:38;;;;;;;20.65;13.27;;;;;;;;;;5073154;28;20099;-75
2021/11/10 06:41:03;;;;;;;21.20;12.93;;;;;;;;;;5055471;28;20119;-74
2021/11/10 06:43:29;;;;;;;25.70;14.20;;;;;;;;;;5055551;28;20056;-75
2021/11/10 06:45:55;;;;;;;27.52;16.65;;;;;;;;;;5073088;28;20048;-75
2021/11/10 06:48:21;;;;;;;28.00;16.42;;;;;;;;;;5073105;28;20118;-74
2021/11/10 06:50:47;;;;;;;25.13;14.00;;;;;;;;;;5073051;28;20127;-75
2021/11/10 06:53:12;;;;;;;23.88;13.23;;;;;;;;;;5072594;28;20448;-75
2021/11/10 06:55:38;;;;;;;24.50;12.70;;;;;;;;;;5072960;28;20044;-75
2021/11/10 06:58:03;;;;;;;21.00;13.52;;;;;;;;;;5073181;28;20480;-75
2021/11/10 07:00:29;;;;;;;21.02;13.65;;;;;;;;;;5072993;28;20055;-74
2021/11/10 07:02:55;;;;;;;19.63;12.73;;;;;;;;;;5073128;28;20056;-75
2021/11/10 07:05:20;;;;;;;27.15;14.32;;;;;;;;;;5072939;28;20037;-75
2021/11/10 07:07:46;;;;;;;36.55;19.17;;;;;;;;;;5072923;28;20511;-75
2021/11/10 07:10:12;;;;;;;33.60;18.05;;;;;;;;;;5072738;28;20395;-75
2021/11/10 07:12:37;;;;;;;24.23;14.45;;;;;;;;;;5072902;28;20029;-74
2021/11/10 07:15:03;;;;;;;21.15;13.02;;;;;;;;;;5054883;28;20036;-75
2021/11/10 07:17:29;;;;;;;25.35;15.52;;;;;;;;;;5072914;28;20025;-75
2021/11/10 07:19:54;;;;;;;27.33;17.55;;;;;;;;;;5072751;28;20040;-74
2021/11/10 07:22:20;;;;;;;24.95;16.45;;;;;;;;;;5072760;28;20079;-74
2021/11/10 07:24:46;;;;;;;22.48;14.75;;;;;;;;;;5072650;28;20385;-75
2021/11/10 07:27:12;;;;;;;18.25;12.70;;;;;;;;;;5072800;28;20048;-75
2021/11/10 07:29:37;;;;;;;16.30;11.90;;;;;;;;;;5072709;28;20037;-75
2021/11/10 07:32:03;;;;;;;16.58;11.63;;;;;;;;;;5072707;28;20525;-74
2021/11/10 07:34:29;;;;;;;17.05;11.20;;;;;;;;;;5054950;28;20032;-76
2021/11/10 07:36:55;;;;;;;17.23;11.82;;;;;;;;;;5072784;28;20036;-79
2021/11/10 07:39:21;;;;;;;17.52;11.27;;;;;;;;;;5072853;28;20043;-76
2021/11/10 07:41:49;;;;;;;15.68;10.70;;;;;;;;;;5072741;28;20103;-76
2021/11/10 07:44:15;;;;;;;17.20;11.15;;;;;;;;;;5072791;28;20040;-76
2021/11/10 07:47:06;;;;;;;20.98;12.70;;;;;;;;;;5038320;28;20395;-76
2021/11/10 07:49:32;;;;;;;22.08;12.90;;;;;;;;;;5072715;28;20041;-76
2021/11/10 07:52:08;;;;;;;26.67;13.77;;;;;;;;;;5072631;28;20056;-76
2021/11/10 07:54:35;;;;;;;22.88;13.10;;;;;;;;;;5072755;28;20082;-76
2021/11/10 08:00:05;;;;;;;18.75;11.73;;;;;;;;;;5072493;28;20036;-76
2021/11/10 08:03:05;;;;;;;49.53;37.63;;;;;;;;;;5055037;28;20028;-76
2021/11/10 08:05:38;;;;;;;24.40;16.33;;;;;;;;;;5074375;28;20472;-76
2021/11/10 08:08:14;;;;;;;19.35;11.40;;;;;;;;;;5058400;28;20068;-75
2021/11/10 08:10:52;;;;;;;17.27;10.65;;;;;;;;;;5076077;28;20075;-76
2021/11/10 08:13:19;;;;;;;17.08;11.40;;;;;;;;;;5076105;28;20067;-76
2021/11/10 08:15:59;;;;;;;13.85;9.15;;;;;;;;;;5076382;28;20024;-76
2021/11/10 08:18:31;;;;;;;10.75;8.30;;;;;;;;;;5076123;28;20037;-78
2021/11/10 08:21:05;;;;;;;11.35;7.93;;;;;;;;;;5076012;28;20075;-76
2021/11/10 08:23:31;;;;;;;11.82;8.98;;;;;;;;;;5075629;28;20048;-76
2021/11/10 08:25:58;;;;;;;11.82;8.52;;;;;;;;;;5076135;28;20055;-75
2021/11/10 08:28:39;;;;;;;18.15;12.05;;;;;;;;;;5075932;28;20476;-76
2021/11/10 08:31:07;;;;;;;13.00;7.97;;;;;;;;;;5057885;28;20404;-75
2021/11/10 08:33:32;;;;;;;8.60;6.85;;;;;;;;;;5075786;28;20025;-75
2021/11/10 08:35:59;;;;;;;13.98;8.13;;;;;;;;;;5057979;28;20067;-75
2021/11/10 08:38:25;;;;;;;11.73;8.18;;;;;;;;;;5057768;28;20056;-75
2021/11/10 08:40:51;;;;;;;11.68;7.22;;;;;;;;;;5075458;28;20119;-75
2021/11/10 08:43:16;;;;;;;10.77;6.20;;;;;;;;;;5075419;28;20449;-75
2021/11/10 08:45:44;;;;;;;8.85;6.22;;;;;;;;;;5075407;28;20040;-74
2021/11/10 08:48:10;;;;;;;8.15;5.95;;;;;;;;;;5075336;28;20050;-74
2021/11/10 08:50:39;;;;;;;10.40;6.35;;;;;;;;;;5057401;28;20543;-74
2021/11/10 08:53:05;;;;;;;7.60;6.28;;;;;;;;;;5075296;28;20531;-74
2021/11/10 08:55:30;;;;;;;6.97;5.32;;;;;;;;;;5075433;28;20128;-75
2021/11/10 08:57:56;;;;;;;9.10;5.57;;;;;;;;;;5057580;28;20446;-74
2021/11/10 09:00:23;;;;;;;7.28;5.68;;;;;;;;;;5075146;28;20036;-75
2021/11/10 09:02:48;;;;;;;6.03;4.93;;;;;;;;;;5075170;28;20039;-74
2021/11/10 09:05:15;;;;;;;6.47;5.18;;;;;;;;;;5057068;28;20123;-74
2021/11/10 09:07:40;;;;;;;5.55;4.40;;;;;;;;;;5075029;28;20024;-74
2021/11/10 09:10:07;;;;;;;8.40;4.60;;;;;;;;;;5074935;28;20043;-74
2021/11/10 09:12:32;;;;;;;5.80;4.88;;;;;;;;;;5075003;28;20025;-74
2021/11/10 09:14:59;;;;;;;10.57;5.68;;;;;;;;;;5057083;28;20044;-74
2021/11/10 09:17:24;;;;;;;7.13;5.22;;;;;;;;;;5074145;28;20027;-75
2021/11/10 09:19:51;;;;;;;6.88;5.10;;;;;;;;;;5074936;28;20040;-74
2021/11/10 09:22:16;;;;;;;5.43;4.88;;;;;;;;;;5074935;28;20499;-74
2021/11/10 09:24:43;;;;;;;8.82;5.15;;;;;;;;;;5074258;28;20044;-74
2021/11/10 09:27:09;;;;;;;8.32;5.70;;;;;;;;;;5074615;28;20045;-75
2021/11/10 09:29:36;;;;;;;8.70;4.97;;;;;;;;;;5074418;28;20673;-74
2021/11/10 09:32:02;;;;;;;9.13;5.82;;;;;;;;;;5074569;28;20079;-74
2021/11/10 09:34:27;;;;;;;9.63;6.38;;;;;;;;;;5074476;28;20032;-74
2021/11/10 09:36:53;;;;;;;8.23;6.18;;;;;;;;;;5074484;28;20104;-74
2021/11/10 09:39:20;;;;;;;7.82;5.80;;;;;;;;;;5074162;28;20118;-75
2021/11/10 09:41:46;;;;;;;15.85;9.55;;;;;;;;;;5074333;28;20036;-74
2021/11/10 09:44:12;;;;;;;6.70;5.35;;;;;;;;;;5074218;28;20489;-75
2021/11/10 09:46:38;;;;;;;5.13;4.10;;;;;;;;;;5074311;28;20028;-75
2021/11/10 09:49:05;;;;;;;8.20;4.75;;;;;;;;;;5074170;28;20538;-75
2021/11/10 09:51:34;;;;;;;9.55;5.78;;;;;;;;;;5056548;28;20112;-74
2021/11/10 09:54:09;;;;;;;7.60;5.27;;;;;;;;;;5074317;28;20029;-77
2021/11/10 09:56:46;;;;;;;5.80;3.78;;;;;;;;;;5074365;28;20145;-75
2021/11/10 09:59:25;;;;;;;3.95;3.53;;;;;;;;;;5056608;28;20369;-75
2021/11/10 10:01:51;;;;;;;5.30;3.95;;;;;;;;;;5056368;28;20060;-75
2021/11/10 10:04:17;;;;;;;4.97;3.70;;;;;;;;;;5073898;28;20079;-74
2021/11/10 10:06:43;;;;;;;5.57;4.13;;;;;;;;;;5073861;28;20044;-75
2021/11/10 10:09:09;;;;;;;12.95;4.45;;;;;;;;;;5073800;28;20071;-75
2021/11/10 10:11:35;;;;;;;6.45;4.43;;;;;;;;;;5073706;28;20067;-75
2021/11/10 10:14:00;;;;;;;6.00;3.88;;;;;;;;;;5073696;28;20027;-75
2021/11/10 10:16:30;;;;;;;6.15;4.10;;;;;;;;;;5055873;28;20044;-75
2021/11/10 10:19:08;;;;;;;3.78;3.15;;;;;;;;;;5073276;28;20036;-75
2021/11/10 10:21:34;;;;;;;6.45;4.00;;;;;;;;;;5073659;28;20028;-75
2021/11/10 10:24:00;;;;;;;4.07;3.42;;;;;;;;;;5072923;28;20492;-75
2021/11/10 10:26:27;;;;;;;3.28;2.97;;;;;;;;;;5073375;28;20049;-75
2021/11/10 10:28:54;;;;;;;4.78;3.10;;;;;;;;;;5073473;28;20029;-76
2021/11/10 10:31:22;;;;;;;4.97;3.35;;;;;;;;;;5073396;28;20033;-75
2021/11/10 10:33:49;;;;;;;3.90;3.30;;;;;;;;;;5073356;28;20162;-75
2021/11/10 10:36:19;;;;;;;3.97;3.58;;;;;;;;;;5073352;28;20029;-75
2021/11/10 10:38:51;;;;;;;4.47;2.83;;;;;;;;;;5073355;28;20438;-75
2021/11/10 10:41:18;;;;;;;2.63;2.42;;;;;;;;;;5073329;28;20036;-76
2021/11/10 10:43:46;;;;;;;4.65;2.83;;;;;;;;;;5038849;28;20458;-75
2021/11/10 10:46:12;;;;;;;2.47;2.28;;;;;;;;;;5073233;28;20408;-75
2021/11/10 10:48:38;;;;;;;2.78;2.50;;;;;;;;;;5055305;28;20025;-75
2021/11/10 10:51:08;;;;;;;2.97;2.67;;;;;;;;;;5072991;28;20119;-75
2021/11/10 10:53:47;;;;;;;4.43;2.35;;;;;;;;;;5073268;28;20025;-76
2021/11/10 10:56:13;;;;;;;2.88;2.67;;;;;;;;;;5055414;28;20150;-75
2021/11/10 10:58:39;;;;;;;3.22;2.20;;;;;;;;;;5055178;28;20502;-76
2021/11/10 11:01:17;;;;;;;3.38;2.50;;;;;;;;;;5072973;28;20127;-76
2021/11/10 11:04:03;;;;;;;2.45;2.20;;;;;;;;;;5055185;28;20076;-75
2021/11/10 11:06:38;;;;;;;4.20;2.40;;;;;;;;;;5072612;28;20068;-75
2021/11/10 11:09:25;;;;;;;3.53;2.00;;;;;;;;;;5055106;28;20087;-76
2021/11/10 11:12:03;;;;;;;3.50;2.15;;;;;;;;;;5054743;28;20045;-75
2021/11/10 11:14:38;;;;;;;3.50;2.33;;;;;;;;;;5072927;28;20044;-75
2021/11/10 11:17:05;;;;;;;2.30;2.10;;;;;;;;;;5072840;28;20082;-75
2021/11/10 11:19:34;;;;;;;2.88;2.40;;;;;;;;;;5072980;28;20075;-75
2021/11/10 11:21:59;;;;;;;2.00;1.90;;;;;;;;;;5072935;28;20507;-76
2021/11/10 11:24:31;;;;;;;2.35;1.80;;;;;;;;;;5072498;28;20079;-75
2021/11/10 11:27:26;;;;;;;4.07;2.55;;;;;;;;;;5072761;28;20099;-76
2021/11/10 11:29:53;;;;;;;5.75;3.63;;;;;;;;;;5051187;28;20132;-75
2021/11/10 11:32:22;;;;;;;5.38;2.58;;;;;;;;;;5072782;28;20024;-75
2021/11/10 11:34:49;;;;;;;7.32;3.35;;;;;;;;;;5072854;28;20035;-75
2021/11/10 11:37:15;;;;;;;3.22;2.17;;;;;;;;;;5054671;28;20115;-75
2021/11/10 11:39:40;;;;;;;3.10;2.33;;;;;;;;;;5073128;28;20079;-75
2021/11/10 11:42:06;;;;;;;2.47;2.08;;;;;;;;;;5076568;28;20039;-75
2021/11/10 11:44:34;;;;;;;2.72;2.38;;;;;;;;;;5076549;28;20099;-75
2021/11/10 11:46:59;;;;;;;2.65;2.10;;;;;;;;;;5058699;28;20025;-75
2021/11/10 11:49:25;;;;;;;6.43;3.40;;;;;;;;;;5076391;28;20036;-75
2021/11/10 11:51:50;;;;;;;5.95;3.70;;;;;;;;;;5076546;28;20036;-75
2021/11/10 11:54:16;;;;;;;4.63;2.78;;;;;;;;;;5076428;28;20383;-75
2021/11/10 11:56:42;;;;;;;3.58;2.72;;;;;;;;;;5076334;28;20024;-75
2021/11/10 11:59:08;;;;;;;3.90;3.55;;;;;;;;;;5076297;28;20036;-75
2021/11/10 12:01:36;;;;;;;4.25;3.45;;;;;;;;;;5076434;28;20028;-75
2021/11/10 12:04:07;;;;;;;2.40;2.20;;;;;;;;;;5058337;28;20083;-75
2021/11/10 12:06:48;;;;;;;3.53;2.03;;;;;;;;;;5075969;28;20040;-74
2021/11/10 12:09:16;;;;;;;2.33;2.13;;;;;;;;;;5076080;28;20039;-74
2021/11/10 12:11:41;;;;;;;3.78;3.22;;;;;;;;;;5058422;28;20021;-75
2021/11/10 12:14:07;;;;;;;2.55;2.35;;;;;;;;;;5076066;28;20456;-75
2021/11/10 12:16:45;;;;;;;2.78;2.20;;;;;;;;;;5076128;28;20031;-74
2021/11/10 12:19:12;;;;;;;3.33;2.50;;;;;;;;;;5075887;28;20032;-74
2021/11/10 12:21:40;;;;;;;2.60;2.40;;;;;;;;;;5075945;28;20025;-74
2021/11/10 12:24:07;;;;;;;3.38;2.55;;;;;;;;;;5075472;28;20492;-74
2021/11/10 12:26:34;;;;;;;2.55;2.35;;;;;;;;;;5075828;28;20059;-74
2021/11/10 12:29:01;;;;;;;2.25;2.05;;;;;;;;;;5075786;28;20032;-74
2021/11/10 12:31:31;;;;;;;3.38;3.13;;;;;;;;;;5075679;28;20025;-74
2021/11/10 12:34:23;;;;;;;5.18;3.58;;;;;;;;;;5075553;28;20063;-74
2021/11/10 12:36:59;;;;;;;5.30;3.15;;;;;;;;;;5019949;28;20036;-75
2021/11/10 12:39:35;;;;;;;3.45;2.83;;;;;;;;;;5075664;28;20033;-74
2021/11/10 12:42:03;;;;;;;4.10;2.97;;;;;;;;;;5075698;28;20063;-74
2021/11/10 12:44:32;;;;;;;3.45;2.80;;;;;;;;;;5075641;28;20032;-73
2021/11/10 12:47:01;;;;;;;3.03;2.70;;;;;;;;;;5057488;28;20083;-74
2021/11/10 12:49:26;;;;;;;3.78;2.88;;;;;;;;;;5057494;28;20062;-74
2021/11/10 12:52:10;;;;;;;2.85;2.45;;;;;;;;;;5074200;28;20373;-75
2021/11/10 12:55:00;;;;;;;11.50;6.22;;;;;;;;;;5075284;28;20084;-74
2021/11/10 12:57:32;;;;;;;7.70;5.38;;;;;;;;;;5044530;28;20476;-74
2021/11/10 12:59:58;;;;;;;11.02;6.07;;;;;;;;;;5075163;28;20029;-76
2021/11/10 13:02:24;;;;;;;12.23;5.60;;;;;;;;;;5075679;28;20031;-76
2021/11/10 13:04:51;;;;;;;22.85;9.82;;;;;;;;;;5075270;28;20048;-76
2021/11/10 13:07:24;;;;;;;12.48;6.43;;;;;;;;;;5075135;28;20025;-76
2021/11/10 13:09:50;;;;;;;17.20;6.68;;;;;;;;;;5073114;28;20036;-76
2021/11/10 13:12:17;;;;;;;7.50;4.80;;;;;;;;;;5073876;28;20012;-76
2021/11/10 13:14:44;;;;;;;5.15;3.33;;;;;;;;;;5074401;28;20087;-76
2021/11/10 13:17:12;;;;;;;6.55;4.20;;;;;;;;;;5074353;28;20530;-76
2021/11/10 13:19:39;;;;;;;6.78;3.90;;;;;;;;;;5056422;28;20040;-76
2021/11/10 13:22:05;;;;;;;7.80;5.28;;;;;;;;;;5074688;28;20119;-76
2021/11/10 13:24:30;;;;;;;10.68;6.75;;;;;;;;;;5074426;28;20132;-76
2021/11/10 13:26:56;;;;;;;7.15;4.50;;;;;;;;;;5074635;28;20471;-76
2021/11/10 13:29:22;;;;;;;5.72;3.80;;;;;;;;;;5074522;28;20507;-76
2021/11/10 13:31:49;;;;;;;5.75;4.15;;;;;;;;;;5074684;28;20024;-76
2021/11/10 13:34:15;;;;;;;8.98;5.85;;;;;;;;;;5040108;28;20040;-76
2021/11/10 13:36:40;;;;;;;9.82;6.03;;;;;;;;;;5074602;28;20377;-76
2021/11/10 13:39:10;;;;;;;12.02;6.93;;;;;;;;;;5074528;28;20079;-76
2021/11/10 13:41:35;;;;;;;10.25;6.40;;;;;;;;;;5056593;28;20464;-76
2021/11/10 13:44:09;;;;;;;9.07;6.35;;;;;;;;;;5074327;28;20044;-76
2021/11/10 13:46:38;;;;;;;12.40;8.25;;;;;;;;;;5074252;28;20043;-76
2021/11/10 13:49:14;;;;;;;8.18;4.85;;;;;;;;;;5074087;28;20175;-76
2021/11/10 13:51:47;;;;;;;5.60;4.75;;;;;;;;;;5074348;28;20369;-76
2021/11/10 13:54:16;;;;;;;4.20;3.80;;;;;;;;;;5074301;28;20067;-76
2021/11/10 13:56:50;;;;;;;5.47;4.97;;;;;;;;;;5074075;28;20536;-76
2021/11/10 13:59:17;;;;;;;6.95;4.43;;;;;;;;;;5074291;28;20051;-76
2021/11/10 14:01:55;;;;;;;3.53;3.22;;;;;;;;;;5039477;28;20067;-76
2021/11/10 14:04:21;;;;;;;4.50;3.90;;;;;;;;;;5073773;28;20044;-76
2021/11/10 14:07:01;;;;;;;5.90;4.93;;;;;;;;;;5073950;28;20025;-76
2021/11/10 14:09:28;;;;;;;7.43;6.70;;;;;;;;;;5073922;28;20040;-76
2021/11/10 14:12:13;;;;;;;10.45;9.40;;;;;;;;;;5073951;28;20502;-76
2021/11/10 14:14:38;;;;;;;14.30;9.25;;;;;;;;;;5073641;28;20039;-76
2021/11/10 14:17:04;;;;;;;16.30;9.00;;;;;;;;;;5073777;28;20388;-76
2021/11/10 14:19:29;;;;;;;7.40;4.95;;;;;;;;;;5055965;28;20045;-76
2021/11/10 14:21:55;;;;;;;7.75;4.38;;;;;;;;;;5073541;28;20033;-76
2021/11/10 14:24:23;;;;;;;4.53;3.33;;;;;;;;;;5055156;28;20044;-76
2021/11/10 14:26:48;;;;;;;5.50;3.38;;;;;;;;;;5073624;28;20049;-76
2021/11/10 14:29:14;;;;;;;7.93;5.00;;;;;;;;;;5055295;28;20036;-76
2021/11/10 14:31:44;;;;;;;12.90;5.55;;;;;;;;;;5073426;28;20044;-76
2021/11/10 14:34:10;;;;;;;13.45;6.43;;;;;;;;;;5055706;28;20089;-76
2021/11/10 14:36:37;;;;;;;16.40;8.77;;;;;;;;;;5073573;28;20052;-76
2021/11/10 14:39:06;;;;;;;22.88;11.10;;;;;;;;;;5073470;28;20032;-76
2021/11/10 14:41:51;;;;;;;21.85;9.57;;;;;;;;;;5073134;28;20024;-76
2021/11/10 14:44:24;;;;;;;18.35;9.27;;;;;;;;;;5073385;28;20032;-76
2021/11/10 14:46:50;;;;;;;20.13;10.43;;;;;;;;;;5073240;28;20033;-76
2021/11/10 14:49:18;;;;;;;77.38;45.95;;;;;;;;;;5055319;28;20031;-76
2021/11/10 14:51:50;;;;;;;68.30;31.75;;;;;;;;;;5073126;28;20054;-76
2021/11/10 14:54:17;;;;;;;119.18;38.75;;;;;;;;;;5055281;28;20442;-76
2021/11/10 14:56:52;;;;;;;85.88;34.10;;;;;;;;;;5073276;28;20039;-76